sensor_id;sensor_type;location;lat;lon;timestamp;temperature;humidity
26541;DHT22;14206;50.202;10.948;2023-03-03T00:01:15;2.00;89.20
26541;DHT22;14206;50.202;10.948;2023-03-03T00:03:43;1.90;89.30
26541;DHT22;14206;50.202;10.948;2023-03-03T00:06:12;1.90;89.40
26541;DHT22;14206;50.202;10.948;2023-03-03T00:08:39;1.80;89.40
26541;DHT22;14206;50.202;10.948;2023-03-03T00:11:07;1.80;89.60
26541;DHT22;14206;50.202;10.948;2023-03-03T00:18:41;1.70;90.30
26541;DHT22;14206;50.202;10.948;2023-03-03T00:21:26;1.70;90.50
26541;DHT22;14206;50.202;10.948;2023-03-03T00:24:32;1.70;90.70
26541;DHT22;14206;50.202;10.948;2023-03-03T00:27:16;1.70;90.80
26541;DHT22;14206;50.202;10.948;2023-03-03T00:29:45;1.70;90.80
26541;DHT22;14206;50.202;10.948;2023-03-03T00:34:42;1.70;90.60
26541;DHT22;14206;50.202;10.948;2023-03-03T00:37:26;1.70;90.70
26541;DHT22;14206;50.202;10.948;2023-03-03T00:39:58;1.70;90.60
26541;DHT22;14206;50.202;10.948;2023-03-03T00:42:26;1.70;90.90
26541;DHT22;14206;50.202;10.948;2023-03-03T00:44:59;1.60;90.90
26541;DHT22;14206;50.202;10.948;2023-03-03T00:47:39;1.60;91.20
26541;DHT22;14206;50.202;10.948;2023-03-03T00:52:44;1.50;92.00
26541;DHT22;14206;50.202;10.948;2023-03-03T00:55:11;1.50;92.10
26541;DHT22;14206;50.202;10.948;2023-03-03T00:57:38;1.50;92.20
26541;DHT22;14206;50.202;10.948;2023-03-03T01:00:08;1.50;92.20
26541;DHT22;14206;50.202;10.948;2023-03-03T01:02:36;1.50;92.40
26541;DHT22;14206;50.202;10.948;2023-03-03T01:05:03;1.50;92.50
26541;DHT22;14206;50.202;10.948;2023-03-03T01:07:30;1.50;92.40
26541;DHT22;14206;50.202;10.948;2023-03-03T01:09:56;1.40;92.70
26541;DHT22;14206;50.202;10.948;2023-03-03T01:12:23;1.40;92.70
26541;DHT22;14206;50.202;10.948;2023-03-03T01:14:51;1.40;92.80
26541;DHT22;14206;50.202;10.948;2023-03-03T01:17:20;1.40;92.80
26541;DHT22;14206;50.202;10.948;2023-03-03T01:19:47;1.40;92.90
26541;DHT22;14206;50.202;10.948;2023-03-03T01:22:14;1.30;92.90
26541;DHT22;14206;50.202;10.948;2023-03-03T01:24:40;1.30;93.00
26541;DHT22;14206;50.202;10.948;2023-03-03T01:27:07;1.30;93.20
26541;DHT22;14206;50.202;10.948;2023-03-03T01:29:34;1.30;93.00
26541;DHT22;14206;50.202;10.948;2023-03-03T01:32:01;1.30;93.40
26541;DHT22;14206;50.202;10.948;2023-03-03T01:34:28;1.30;93.40
26541;DHT22;14206;50.202;10.948;2023-03-03T01:36:54;1.30;93.60
26541;DHT22;14206;50.202;10.948;2023-03-03T01:39:21;1.30;93.70
26541;DHT22;14206;50.202;10.948;2023-03-03T01:41:48;1.20;93.50
26541;DHT22;14206;50.202;10.948;2023-03-03T01:44:15;1.20;93.60
26541;DHT22;14206;50.202;10.948;2023-03-03T01:49:24;1.10;93.80
26541;DHT22;14206;50.202;10.948;2023-03-03T01:51:55;1.10;93.80
26541;DHT22;14206;50.202;10.948;2023-03-03T01:54:30;1.00;94.00
26541;DHT22;14206;50.202;10.948;2023-03-03T01:57:04;1.00;94.60
26541;DHT22;14206;50.202;10.948;2023-03-03T01:59:36;1.00;95.00
26541;DHT22;14206;50.202;10.948;2023-03-03T02:02:07;0.90;95.10
26541;DHT22;14206;50.202;10.948;2023-03-03T02:04:34;0.90;95.30
26541;DHT22;14206;50.202;10.948;2023-03-03T02:07:05;0.90;95.30
26541;DHT22;14206;50.202;10.948;2023-03-03T02:09:58;0.90;95.30
26541;DHT22;14206;50.202;10.948;2023-03-03T02:12:50;0.90;95.20
26541;DHT22;14206;50.202;10.948;2023-03-03T02:17:53;0.80;95.20
26541;DHT22;14206;50.202;10.948;2023-03-03T02:28:29;0.70;95.30
26541;DHT22;14206;50.202;10.948;2023-03-03T02:30:59;0.60;95.60
26541;DHT22;14206;50.202;10.948;2023-03-03T02:33:27;0.60;95.80
26541;DHT22;14206;50.202;10.948;2023-03-03T02:35:55;0.60;96.40
26541;DHT22;14206;50.202;10.948;2023-03-03T02:38:34;0.60;96.60
26541;DHT22;14206;50.202;10.948;2023-03-03T02:41:34;0.60;96.60
26541;DHT22;14206;50.202;10.948;2023-03-03T02:44:12;0.60;96.30
26541;DHT22;14206;50.202;10.948;2023-03-03T02:46:42;0.60;96.60
26541;DHT22;14206;50.202;10.948;2023-03-03T02:49:11;0.60;96.60
26541;DHT22;14206;50.202;10.948;2023-03-03T02:51:38;0.60;96.60
26541;DHT22;14206;50.202;10.948;2023-03-03T02:54:05;0.60;96.60
26541;DHT22;14206;50.202;10.948;2023-03-03T02:56:33;0.60;96.60
26541;DHT22;14206;50.202;10.948;2023-03-03T02:59:00;0.60;96.60
26541;DHT22;14206;50.202;10.948;2023-03-03T03:01:30;0.60;96.60
26541;DHT22;14206;50.202;10.948;2023-03-03T03:04:12;0.60;95.90
26541;DHT22;14206;50.202;10.948;2023-03-03T03:06:42;0.60;95.40
26541;DHT22;14206;50.202;10.948;2023-03-03T03:09:12;0.60;95.30
26541;DHT22;14206;50.202;10.948;2023-03-03T03:11:40;0.50;94.90
26541;DHT22;14206;50.202;10.948;2023-03-03T03:14:09;0.50;94.70
26541;DHT22;14206;50.202;10.948;2023-03-03T03:16:37;0.50;94.80
26541;DHT22;14206;50.202;10.948;2023-03-03T03:19:05;0.40;95.10
26541;DHT22;14206;50.202;10.948;2023-03-03T03:21:34;0.40;95.90
26541;DHT22;14206;50.202;10.948;2023-03-03T03:24:01;0.40;96.60
26541;DHT22;14206;50.202;10.948;2023-03-03T03:26:29;0.40;96.60
26541;DHT22;14206;50.202;10.948;2023-03-03T03:28:56;0.40;96.60
26541;DHT22;14206;50.202;10.948;2023-03-03T03:31:23;0.40;96.60
26541;DHT22;14206;50.202;10.948;2023-03-03T03:33:50;0.40;96.60
26541;DHT22;14206;50.202;10.948;2023-03-03T03:36:20;0.40;96.60
26541;DHT22;14206;50.202;10.948;2023-03-03T03:38:47;0.40;96.60
26541;DHT22;14206;50.202;10.948;2023-03-03T03:41:14;0.40;96.60
26541;DHT22;14206;50.202;10.948;2023-03-03T03:43:41;0.50;96.60
26541;DHT22;14206;50.202;10.948;2023-03-03T03:46:08;0.50;96.60
26541;DHT22;14206;50.202;10.948;2023-03-03T03:48:35;0.50;96.60
26541;DHT22;14206;50.202;10.948;2023-03-03T03:51:04;0.50;96.60
26541;DHT22;14206;50.202;10.948;2023-03-03T03:53:32;0.50;96.60
26541;DHT22;14206;50.202;10.948;2023-03-03T03:55:59;0.50;96.60
26541;DHT22;14206;50.202;10.948;2023-03-03T03:58:26;0.50;96.60
26541;DHT22;14206;50.202;10.948;2023-03-03T04:01:05;0.50;96.60
26541;DHT22;14206;50.202;10.948;2023-03-03T04:03:36;0.50;96.60
26541;DHT22;14206;50.202;10.948;2023-03-03T04:06:07;0.50;96.60
26541;DHT22;14206;50.202;10.948;2023-03-03T04:08:34;0.50;96.60
26541;DHT22;14206;50.202;10.948;2023-03-03T04:11:02;0.50;96.60
26541;DHT22;14206;50.202;10.948;2023-03-03T04:13:29;0.50;96.60
26541;DHT22;14206;50.202;10.948;2023-03-03T04:15:59;0.40;96.60
26541;DHT22;14206;50.202;10.948;2023-03-03T04:18:26;0.40;96.60
26541;DHT22;14206;50.202;10.948;2023-03-03T04:20:53;0.40;96.60
26541;DHT22;14206;50.202;10.948;2023-03-03T04:23:20;0.40;96.60
26541;DHT22;14206;50.202;10.948;2023-03-03T04:25:48;0.40;96.60
26541;DHT22;14206;50.202;10.948;2023-03-03T04:28:16;0.40;96.60
26541;DHT22;14206;50.202;10.948;2023-03-03T04:30:43;0.40;96.60
26541;DHT22;14206;50.202;10.948;2023-03-03T04:33:12;0.40;96.60
26541;DHT22;14206;50.202;10.948;2023-03-03T04:35:39;0.40;96.60
26541;DHT22;14206;50.202;10.948;2023-03-03T04:38:07;0.30;96.60
26541;DHT22;14206;50.202;10.948;2023-03-03T04:40:34;0.30;96.60
26541;DHT22;14206;50.202;10.948;2023-03-03T04:43:02;0.20;96.50
26541;DHT22;14206;50.202;10.948;2023-03-03T04:45:29;0.20;96.40
26541;DHT22;14206;50.202;10.948;2023-03-03T04:47:57;0.10;96.60
26541;DHT22;14206;50.202;10.948;2023-03-03T04:50:24;0.10;96.60
26541;DHT22;14206;50.202;10.948;2023-03-03T04:52:52;0.10;96.60
26541;DHT22;14206;50.202;10.948;2023-03-03T04:55:19;0.10;96.60
26541;DHT22;14206;50.202;10.948;2023-03-03T04:57:47;0.10;96.60
26541;DHT22;14206;50.202;10.948;2023-03-03T05:00:14;0.10;96.60
26541;DHT22;14206;50.202;10.948;2023-03-03T05:02:41;0.10;96.60
26541;DHT22;14206;50.202;10.948;2023-03-03T05:05:09;0.10;96.60
26541;DHT22;14206;50.202;10.948;2023-03-03T05:07:36;0.20;96.60
26541;DHT22;14206;50.202;10.948;2023-03-03T05:10:03;0.20;96.60
26541;DHT22;14206;50.202;10.948;2023-03-03T05:12:30;0.10;96.60
26541;DHT22;14206;50.202;10.948;2023-03-03T05:14:57;0.10;96.60
26541;DHT22;14206;50.202;10.948;2023-03-03T05:17:24;0.10;96.60
26541;DHT22;14206;50.202;10.948;2023-03-03T05:19:51;0.10;96.60
26541;DHT22;14206;50.202;10.948;2023-03-03T05:22:17;0.10;96.60
26541;DHT22;14206;50.202;10.948;2023-03-03T05:24:44;0.20;96.60
26541;DHT22;14206;50.202;10.948;2023-03-03T05:27:17;0.20;96.60
26541;DHT22;14206;50.202;10.948;2023-03-03T05:29:44;0.10;96.60
26541;DHT22;14206;50.202;10.948;2023-03-03T05:32:11;0.10;96.60
26541;DHT22;14206;50.202;10.948;2023-03-03T05:34:38;0.10;96.60
26541;DHT22;14206;50.202;10.948;2023-03-03T05:37:05;0.10;96.60
26541;DHT22;14206;50.202;10.948;2023-03-03T05:39:33;0.10;96.60
26541;DHT22;14206;50.202;10.948;2023-03-03T05:42:00;0.10;96.60
26541;DHT22;14206;50.202;10.948;2023-03-03T05:44:27;0.10;96.60
26541;DHT22;14206;50.202;10.948;2023-03-03T05:46:54;0.10;96.60
26541;DHT22;14206;50.202;10.948;2023-03-03T05:49:23;0.10;96.60
26541;DHT22;14206;50.202;10.948;2023-03-03T05:51:50;0.10;96.60
26541;DHT22;14206;50.202;10.948;2023-03-03T05:54:17;0.10;96.60
26541;DHT22;14206;50.202;10.948;2023-03-03T05:56:44;0.10;96.60
26541;DHT22;14206;50.202;10.948;2023-03-03T05:59:11;0.10;96.60
26541;DHT22;14206;50.202;10.948;2023-03-03T06:01:38;0.20;96.60
26541;DHT22;14206;50.202;10.948;2023-03-03T06:04:05;0.20;96.60
26541;DHT22;14206;50.202;10.948;2023-03-03T06:06:33;0.20;96.60
26541;DHT22;14206;50.202;10.948;2023-03-03T06:09:00;0.20;96.60
26541;DHT22;14206;50.202;10.948;2023-03-03T06:11:27;0.20;96.60
26541;DHT22;14206;50.202;10.948;2023-03-03T06:13:53;0.20;96.60
26541;DHT22;14206;50.202;10.948;2023-03-03T06:16:20;0.30;96.60
26541;DHT22;14206;50.202;10.948;2023-03-03T06:18:47;0.30;96.60
26541;DHT22;14206;50.202;10.948;2023-03-03T06:21:14;0.30;96.60
26541;DHT22;14206;50.202;10.948;2023-03-03T06:23:41;0.30;96.60
26541;DHT22;14206;50.202;10.948;2023-03-03T06:26:08;0.30;96.60
26541;DHT22;14206;50.202;10.948;2023-03-03T06:28:35;0.30;96.60
26541;DHT22;14206;50.202;10.948;2023-03-03T06:31:01;0.30;96.60
26541;DHT22;14206;50.202;10.948;2023-03-03T06:33:29;0.30;96.60
26541;DHT22;14206;50.202;10.948;2023-03-03T06:35:56;0.30;96.60
26541;DHT22;14206;50.202;10.948;2023-03-03T06:38:23;0.40;96.60
26541;DHT22;14206;50.202;10.948;2023-03-03T06:40:50;0.40;96.60
26541;DHT22;14206;50.202;10.948;2023-03-03T06:43:16;0.50;96.60
26541;DHT22;14206;50.202;10.948;2023-03-03T06:45:44;0.60;96.60
26541;DHT22;14206;50.202;10.948;2023-03-03T06:48:11;0.60;96.60
26541;DHT22;14206;50.202;10.948;2023-03-03T06:50:38;0.70;96.60
26541;DHT22;14206;50.202;10.948;2023-03-03T06:53:13;0.80;96.60
26541;DHT22;14206;50.202;10.948;2023-03-03T06:55:40;0.90;96.60
26541;DHT22;14206;50.202;10.948;2023-03-03T06:58:19;0.90;96.60
26541;DHT22;14206;50.202;10.948;2023-03-03T07:03:23;1.10;96.60
26541;DHT22;14206;50.202;10.948;2023-03-03T07:05:50;1.20;96.60
26541;DHT22;14206;50.202;10.948;2023-03-03T07:08:21;1.30;96.60
26541;DHT22;14206;50.202;10.948;2023-03-03T07:10:49;1.40;96.60
26541;DHT22;14206;50.202;10.948;2023-03-03T07:13:21;1.60;96.60
26541;DHT22;14206;50.202;10.948;2023-03-03T07:15:51;1.70;96.60
26541;DHT22;14206;50.202;10.948;2023-03-03T07:18:36;1.90;96.60
26541;DHT22;14206;50.202;10.948;2023-03-03T07:21:30;2.10;96.60
26541;DHT22;14206;50.202;10.948;2023-03-03T07:24:00;2.30;96.60
26541;DHT22;14206;50.202;10.948;2023-03-03T07:26:30;2.50;96.40
26541;DHT22;14206;50.202;10.948;2023-03-03T07:29:25;2.70;95.30
26541;DHT22;14206;50.202;10.948;2023-03-03T07:31:55;2.80;94.30
26541;DHT22;14206;50.202;10.948;2023-03-03T07:34:30;3.00;94.30
26541;DHT22;14206;50.202;10.948;2023-03-03T07:37:15;3.20;93.40
26541;DHT22;14206;50.202;10.948;2023-03-03T07:39:44;3.40;93.00
26541;DHT22;14206;50.202;10.948;2023-03-03T07:42:23;3.50;92.00
26541;DHT22;14206;50.202;10.948;2023-03-03T07:45:27;3.60;92.10
26541;DHT22;14206;50.202;10.948;2023-03-03T07:50:50;3.60;91.50
26541;DHT22;14206;50.202;10.948;2023-03-03T07:53:29;3.60;91.50
26541;DHT22;14206;50.202;10.948;2023-03-03T07:56:00;3.60;91.50
26541;DHT22;14206;50.202;10.948;2023-03-03T07:58:37;3.60;90.80
26541;DHT22;14206;50.202;10.948;2023-03-03T08:06:50;4.00;90.80
26541;DHT22;14206;50.202;10.948;2023-03-03T08:12:23;4.60;88.00
26541;DHT22;14206;50.202;10.948;2023-03-03T08:14:46;5.40;88.10
26541;DHT22;14206;50.202;10.948;2023-03-03T08:17:19;6.50;83.60
26541;DHT22;14206;50.202;10.948;2023-03-03T08:19:47;7.00;80.60
26541;DHT22;14206;50.202;10.948;2023-03-03T08:22:17;7.40;78.90
26541;DHT22;14206;50.202;10.948;2023-03-03T08:24:44;7.80;78.40
26541;DHT22;14206;50.202;10.948;2023-03-03T08:27:11;8.50;76.60
26541;DHT22;14206;50.202;10.948;2023-03-03T08:29:38;8.80;73.80
26541;DHT22;14206;50.202;10.948;2023-03-03T08:32:05;8.90;74.60
26541;DHT22;14206;50.202;10.948;2023-03-03T08:34:32;8.90;73.00
26541;DHT22;14206;50.202;10.948;2023-03-03T08:36:59;8.90;73.70
26541;DHT22;14206;50.202;10.948;2023-03-03T08:39:25;9.00;73.50
26541;DHT22;14206;50.202;10.948;2023-03-03T08:41:52;9.00;72.30
26541;DHT22;14206;50.202;10.948;2023-03-03T08:44:19;9.00;72.60
26541;DHT22;14206;50.202;10.948;2023-03-03T08:46:46;9.00;72.90
26541;DHT22;14206;50.202;10.948;2023-03-03T08:49:13;9.00;72.20
26541;DHT22;14206;50.202;10.948;2023-03-03T08:51:40;8.80;71.40
26541;DHT22;14206;50.202;10.948;2023-03-03T08:54:07;8.50;71.90
26541;DHT22;14206;50.202;10.948;2023-03-03T08:56:33;8.50;72.90
26541;DHT22;14206;50.202;10.948;2023-03-03T08:59:00;8.50;72.80
26541;DHT22;14206;50.202;10.948;2023-03-03T09:01:32;8.60;72.80
26541;DHT22;14206;50.202;10.948;2023-03-03T09:04:00;8.60;73.10
26541;DHT22;14206;50.202;10.948;2023-03-03T09:06:27;8.80;72.40
26541;DHT22;14206;50.202;10.948;2023-03-03T09:08:54;9.20;71.80
26541;DHT22;14206;50.202;10.948;2023-03-03T09:11:26;9.90;70.10
26541;DHT22;14206;50.202;10.948;2023-03-03T09:14:01;10.40;69.30
26541;DHT22;14206;50.202;10.948;2023-03-03T09:16:33;10.90;67.90
26541;DHT22;14206;50.202;10.948;2023-03-03T09:19:35;11.20;66.00
26541;DHT22;14206;50.202;10.948;2023-03-03T09:22:30;11.40;64.10
26541;DHT22;14206;50.202;10.948;2023-03-03T09:25:01;11.60;65.10
26541;DHT22;14206;50.202;10.948;2023-03-03T09:27:30;11.60;64.40
26541;DHT22;14206;50.202;10.948;2023-03-03T09:32:46;11.10;65.40
26541;DHT22;14206;50.202;10.948;2023-03-03T09:35:39;11.00;65.80
26541;DHT22;14206;50.202;10.948;2023-03-03T09:38:30;11.20;65.80
26541;DHT22;14206;50.202;10.948;2023-03-03T09:43:49;11.70;64.20
26541;DHT22;14206;50.202;10.948;2023-03-03T10:03:04;12.50;62.10
26541;DHT22;14206;50.202;10.948;2023-03-03T10:30:39;16.30;53.00
26541;DHT22;14206;50.202;10.948;2023-03-03T10:38:53;18.30;51.30
26541;DHT22;14206;50.202;10.948;2023-03-03T10:44:04;20.00;48.20
26541;DHT22;14206;50.202;10.948;2023-03-03T10:46:57;20.60;46.40
26541;DHT22;14206;50.202;10.948;2023-03-03T10:49:59;20.50;46.20
26541;DHT22;14206;50.202;10.948;2023-03-03T11:01:00;20.90;45.30
26541;DHT22;14206;50.202;10.948;2023-03-03T11:06:01;21.10;44.20
26541;DHT22;14206;50.202;10.948;2023-03-03T11:08:40;20.90;43.50
26541;DHT22;14206;50.202;10.948;2023-03-03T11:17:49;20.80;43.00
26541;DHT22;14206;50.202;10.948;2023-03-03T11:37:09;15.80;51.20
26541;DHT22;14206;50.202;10.948;2023-03-03T11:39:38;16.60;51.00
26541;DHT22;14206;50.202;10.948;2023-03-03T11:45:10;18.30;48.30
26541;DHT22;14206;50.202;10.948;2023-03-03T11:47:56;18.80;47.10
26541;DHT22;14206;50.202;10.948;2023-03-03T11:50:42;19.50;46.40
26541;DHT22;14206;50.202;10.948;2023-03-03T11:53:38;19.90;45.20
26541;DHT22;14206;50.202;10.948;2023-03-03T11:56:21;19.50;45.00
26541;DHT22;14206;50.202;10.948;2023-03-03T11:58:51;18.20;46.50
26541;DHT22;14206;50.202;10.948;2023-03-03T12:01:32;17.10;47.80
26541;DHT22;14206;50.202;10.948;2023-03-03T12:04:29;16.00;49.80
26541;DHT22;14206;50.202;10.948;2023-03-03T12:07:10;15.00;50.90
26541;DHT22;14206;50.202;10.948;2023-03-03T12:12:48;13.40;54.70
26541;DHT22;14206;50.202;10.948;2023-03-03T12:15:37;12.80;56.20
26541;DHT22;14206;50.202;10.948;2023-03-03T12:18:29;12.30;57.10
26541;DHT22;14206;50.202;10.948;2023-03-03T12:32:21;10.80;61.70
26541;DHT22;14206;50.202;10.948;2023-03-03T12:35:16;10.80;62.00
26541;DHT22;14206;50.202;10.948;2023-03-03T12:37:56;10.60;61.80
26541;DHT22;14206;50.202;10.948;2023-03-03T12:40:34;10.50;62.50
26541;DHT22;14206;50.202;10.948;2023-03-03T12:43:19;10.50;62.50
26541;DHT22;14206;50.202;10.948;2023-03-03T12:46:06;10.50;62.60
26541;DHT22;14206;50.202;10.948;2023-03-03T12:48:45;10.40;63.60
26541;DHT22;14206;50.202;10.948;2023-03-03T12:53:47;10.30;63.10
26541;DHT22;14206;50.202;10.948;2023-03-03T12:56:32;10.10;63.30
26541;DHT22;14206;50.202;10.948;2023-03-03T13:04:47;10.20;63.70
26541;DHT22;14206;50.202;10.948;2023-03-03T13:18:34;9.90;65.10
26541;DHT22;14206;50.202;10.948;2023-03-03T13:21:09;9.90;64.50
26541;DHT22;14206;50.202;10.948;2023-03-03T13:26:30;9.90;65.60
26541;DHT22;14206;50.202;10.948;2023-03-03T13:29:08;9.90;64.30
26541;DHT22;14206;50.202;10.948;2023-03-03T13:32:17;9.90;64.80
26541;DHT22;14206;50.202;10.948;2023-03-03T13:34:55;9.80;64.60
26541;DHT22;14206;50.202;10.948;2023-03-03T13:37:34;9.70;63.90
26541;DHT22;14206;50.202;10.948;2023-03-03T13:42:45;9.50;65.00
26541;DHT22;14206;50.202;10.948;2023-03-03T13:45:29;9.50;65.00
26541;DHT22;14206;50.202;10.948;2023-03-03T13:50:56;9.70;65.40
26541;DHT22;14206;50.202;10.948;2023-03-03T14:02:18;11.30;61.40
26541;DHT22;14206;50.202;10.948;2023-03-03T14:07:43;11.30;59.10
26541;DHT22;14206;50.202;10.948;2023-03-03T14:10:24;11.00;59.10
26541;DHT22;14206;50.202;10.948;2023-03-03T14:15:27;11.00;59.60
26541;DHT22;14206;50.202;10.948;2023-03-03T14:18:04;10.70;60.30
26541;DHT22;14206;50.202;10.948;2023-03-03T14:20:40;10.40;60.20
26541;DHT22;14206;50.202;10.948;2023-03-03T14:23:15;10.10;61.20
26541;DHT22;14206;50.202;10.948;2023-03-03T14:28:26;9.70;63.70
26541;DHT22;14206;50.202;10.948;2023-03-03T14:30:56;9.50;64.20
26541;DHT22;14206;50.202;10.948;2023-03-03T14:33:30;9.40;64.10
26541;DHT22;14206;50.202;10.948;2023-03-03T14:43:38;8.90;65.60
26541;DHT22;14206;50.202;10.948;2023-03-03T14:46:32;8.80;64.90
26541;DHT22;14206;50.202;10.948;2023-03-03T14:49:02;8.70;65.50
26541;DHT22;14206;50.202;10.948;2023-03-03T14:51:43;8.60;65.30
26541;DHT22;14206;50.202;10.948;2023-03-03T14:54:36;8.50;64.70
26541;DHT22;14206;50.202;10.948;2023-03-03T14:57:20;8.30;64.00
26541;DHT22;14206;50.202;10.948;2023-03-03T15:00:00;8.20;64.50
26541;DHT22;14206;50.202;10.948;2023-03-03T15:05:26;8.10;65.00
26541;DHT22;14206;50.202;10.948;2023-03-03T15:10:35;7.90;65.40
26541;DHT22;14206;50.202;10.948;2023-03-03T15:15:59;7.70;66.30
26541;DHT22;14206;50.202;10.948;2023-03-03T15:18:28;7.60;66.90
26541;DHT22;14206;50.202;10.948;2023-03-03T15:21:06;7.50;66.70
26541;DHT22;14206;50.202;10.948;2023-03-03T15:24:03;7.50;67.60
26541;DHT22;14206;50.202;10.948;2023-03-03T15:26:48;7.40;67.50
26541;DHT22;14206;50.202;10.948;2023-03-03T15:29:35;7.40;67.90
26541;DHT22;14206;50.202;10.948;2023-03-03T15:34:46;7.30;68.00
26541;DHT22;14206;50.202;10.948;2023-03-03T15:45:38;7.00;67.80
26541;DHT22;14206;50.202;10.948;2023-03-03T15:48:16;6.90;67.60
26541;DHT22;14206;50.202;10.948;2023-03-03T15:54:14;6.80;68.00
26541;DHT22;14206;50.202;10.948;2023-03-03T15:56:57;6.70;67.80
26541;DHT22;14206;50.202;10.948;2023-03-03T16:02:48;6.50;67.70
26541;DHT22;14206;50.202;10.948;2023-03-03T16:08:14;6.40;67.90
26541;DHT22;14206;50.202;10.948;2023-03-03T16:19:15;5.80;69.80
26541;DHT22;14206;50.202;10.948;2023-03-03T16:24:38;5.60;70.40
26541;DHT22;14206;50.202;10.948;2023-03-03T16:27:44;5.50;70.90
26541;DHT22;14206;50.202;10.948;2023-03-03T16:32:52;5.30;71.70
26541;DHT22;14206;50.202;10.948;2023-03-03T16:35:28;5.10;71.90
26541;DHT22;14206;50.202;10.948;2023-03-03T16:38:03;5.00;72.10
26541;DHT22;14206;50.202;10.948;2023-03-03T16:43:09;4.80;73.20
26541;DHT22;14206;50.202;10.948;2023-03-03T16:45:41;4.70;73.10
26541;DHT22;14206;50.202;10.948;2023-03-03T16:59:51;4.20;74.50
26541;DHT22;14206;50.202;10.948;2023-03-03T17:10:39;3.90;75.60
26541;DHT22;14206;50.202;10.948;2023-03-03T17:16:21;3.70;76.80
26541;DHT22;14206;50.202;10.948;2023-03-03T17:24:21;3.30;77.10
26541;DHT22;14206;50.202;10.948;2023-03-03T17:27:12;3.20;77.50
26541;DHT22;14206;50.202;10.948;2023-03-03T17:41:36;2.80;79.10
26541;DHT22;14206;50.202;10.948;2023-03-03T17:47:05;2.60;79.80
26541;DHT22;14206;50.202;10.948;2023-03-03T17:49:54;2.60;80.10
26541;DHT22;14206;50.202;10.948;2023-03-03T18:01:16;2.30;81.30
26541;DHT22;14206;50.202;10.948;2023-03-03T18:06:37;2.10;82.20
26541;DHT22;14206;50.202;10.948;2023-03-03T18:12:20;2.00;82.80
26541;DHT22;14206;50.202;10.948;2023-03-03T18:23:39;1.70;83.50
26541;DHT22;14206;50.202;10.948;2023-03-03T18:26:32;1.60;83.70
26541;DHT22;14206;50.202;10.948;2023-03-03T18:29:24;1.50;84.00
26541;DHT22;14206;50.202;10.948;2023-03-03T18:37:10;1.20;84.80
26541;DHT22;14206;50.202;10.948;2023-03-03T18:42:33;1.00;86.10
26541;DHT22;14206;50.202;10.948;2023-03-03T18:48:11;0.90;87.30
26541;DHT22;14206;50.202;10.948;2023-03-03T18:50:42;0.80;86.80
26541;DHT22;14206;50.202;10.948;2023-03-03T18:53:58;0.70;87.30
26541;DHT22;14206;50.202;10.948;2023-03-03T18:56:10;0.60;87.70
26541;DHT22;14206;50.202;10.948;2023-03-03T18:58:41;0.60;88.10
26541;DHT22;14206;50.202;10.948;2023-03-03T19:09:11;0.40;88.90
26541;DHT22;14206;50.202;10.948;2023-03-03T19:11:53;0.40;89.10
26541;DHT22;14206;50.202;10.948;2023-03-03T19:20:08;0.30;89.70
26541;DHT22;14206;50.202;10.948;2023-03-03T19:22:46;0.30;89.60
26541;DHT22;14206;50.202;10.948;2023-03-03T19:25:23;0.30;89.40
26541;DHT22;14206;50.202;10.948;2023-03-03T19:27:55;0.30;89.50
26541;DHT22;14206;50.202;10.948;2023-03-03T19:38:36;0.10;90.10
26541;DHT22;14206;50.202;10.948;2023-03-03T20:00:48;-0.20;90.60
26541;DHT22;14206;50.202;10.948;2023-03-03T20:15:43;-0.40;91.80
26541;DHT22;14206;50.202;10.948;2023-03-03T20:24:03;-0.40;92.20
26541;DHT22;14206;50.202;10.948;2023-03-03T20:43:21;-0.50;92.70
26541;DHT22;14206;50.202;10.948;2023-03-03T20:51:37;-0.60;92.60
26541;DHT22;14206;50.202;10.948;2023-03-03T20:54:17;-0.60;92.80
26541;DHT22;14206;50.202;10.948;2023-03-03T20:57:06;-0.60;93.00
26541;DHT22;14206;50.202;10.948;2023-03-03T20:59:56;-0.60;93.00
26541;DHT22;14206;50.202;10.948;2023-03-03T21:05:21;-0.70;92.50
26541;DHT22;14206;50.202;10.948;2023-03-03T21:08:02;-0.70;92.70
26541;DHT22;14206;50.202;10.948;2023-03-03T21:10:32;-0.70;92.30
26541;DHT22;14206;50.202;10.948;2023-03-03T21:13:36;-0.70;92.30
26541;DHT22;14206;50.202;10.948;2023-03-03T21:21:36;-0.90;91.90
26541;DHT22;14206;50.202;10.948;2023-03-03T21:24:04;-0.90;92.00
26541;DHT22;14206;50.202;10.948;2023-03-03T21:34:35;-1.00;92.60
26541;DHT22;14206;50.202;10.948;2023-03-03T21:37:12;-1.10;92.50
26541;DHT22;14206;50.202;10.948;2023-03-03T21:39:43;-1.10;92.40
26541;DHT22;14206;50.202;10.948;2023-03-03T21:42:15;-1.20;92.20
26541;DHT22;14206;50.202;10.948;2023-03-03T21:44:48;-1.20;92.30
26541;DHT22;14206;50.202;10.948;2023-03-03T21:47:21;-1.20;92.30
26541;DHT22;14206;50.202;10.948;2023-03-03T21:49:50;-1.30;92.80
26541;DHT22;14206;50.202;10.948;2023-03-03T21:52:19;-1.30;93.00
26541;DHT22;14206;50.202;10.948;2023-03-03T21:54:47;-1.30;93.20
26541;DHT22;14206;50.202;10.948;2023-03-03T21:57:14;-1.30;93.20
26541;DHT22;14206;50.202;10.948;2023-03-03T21:59:41;-1.30;93.30
26541;DHT22;14206;50.202;10.948;2023-03-03T22:02:08;-1.40;93.50
26541;DHT22;14206;50.202;10.948;2023-03-03T22:04:36;-1.40;93.60
26541;DHT22;14206;50.202;10.948;2023-03-03T22:07:07;-1.40;93.70
26541;DHT22;14206;50.202;10.948;2023-03-03T22:09:34;-1.40;94.60
26541;DHT22;14206;50.202;10.948;2023-03-03T22:12:01;-1.40;94.60
26541;DHT22;14206;50.202;10.948;2023-03-03T22:14:28;-1.40;94.90
26541;DHT22;14206;50.202;10.948;2023-03-03T22:16:55;-1.40;94.90
26541;DHT22;14206;50.202;10.948;2023-03-03T22:19:22;-1.40;95.10
26541;DHT22;14206;50.202;10.948;2023-03-03T22:21:49;-1.40;95.60
26541;DHT22;14206;50.202;10.948;2023-03-03T22:24:16;-1.40;95.70
26541;DHT22;14206;50.202;10.948;2023-03-03T22:26:43;-1.40;95.40
26541;DHT22;14206;50.202;10.948;2023-03-03T22:29:10;-1.40;94.70
26541;DHT22;14206;50.202;10.948;2023-03-03T22:31:37;-1.40;95.00
26541;DHT22;14206;50.202;10.948;2023-03-03T22:34:04;-1.40;95.40
26541;DHT22;14206;50.202;10.948;2023-03-03T22:36:32;-1.40;95.40
26541;DHT22;14206;50.202;10.948;2023-03-03T22:38:59;-1.40;95.30
26541;DHT22;14206;50.202;10.948;2023-03-03T22:41:26;-1.40;95.30
26541;DHT22;14206;50.202;10.948;2023-03-03T22:43:53;-1.40;95.50
26541;DHT22;14206;50.202;10.948;2023-03-03T22:46:20;-1.40;95.30
26541;DHT22;14206;50.202;10.948;2023-03-03T22:48:46;-1.40;95.10
26541;DHT22;14206;50.202;10.948;2023-03-03T22:51:13;-1.40;95.20
26541;DHT22;14206;50.202;10.948;2023-03-03T22:53:40;-1.40;95.10
26541;DHT22;14206;50.202;10.948;2023-03-03T22:56:07;-1.40;95.30
26541;DHT22;14206;50.202;10.948;2023-03-03T22:58:34;-1.50;95.10
26541;DHT22;14206;50.202;10.948;2023-03-03T23:01:00;-1.50;94.70